sensor_id;sensor_type;location;lat;lon;timestamp;P1;durP1;ratioP1;P2;durP2;ratioP2
20078;SDS011;10199;48.850;8.924;2024-01-11T11:06:26;35.07;;;22.50;;
20078;SDS011;10199;48.850;8.924;2024-01-11T11:08:57;33.00;;;21.87;;
20078;SDS011;10199;48.850;8.924;2024-01-11T11:11:26;36.37;;;22.93;;
20078;SDS011;10199;48.850;8.924;2024-01-11T11:43:53;33.60;;;23.97;;
20078;SDS011;10199;48.850;8.924;2024-01-11T11:50:21;31.83;;;22.63;;
20078;SDS011;10199;48.850;8.924;2024-01-11T11:52:54;32.83;;;23.30;;
20078;SDS011;10199;48.850;8.924;2024-01-11T11:55:23;31.60;;;23.73;;
20078;SDS011;10199;48.850;8.924;2024-01-11T11:57:52;28.63;;;18.93;;
20078;SDS011;10199;48.850;8.924;2024-01-11T12:00:20;33.57;;;23.57;;
20078;SDS011;10199;48.850;8.924;2024-01-11T12:02:50;35.53;;;24.70;;
20078;SDS011;10199;48.850;8.924;2024-01-11T12:05:20;31.47;;;22.87;;
20078;SDS011;10199;48.850;8.924;2024-01-11T12:07:49;32.93;;;23.87;;
20078;SDS011;10199;48.850;8.924;2024-01-11T12:10:17;31.27;;;23.07;;
20078;SDS011;10199;48.850;8.924;2024-01-11T12:12:49;30.43;;;21.93;;
20078;SDS011;10199;48.850;8.924;2024-01-11T12:15:22;32.53;;;22.00;;
20078;SDS011;10199;48.850;8.924;2024-01-11T12:17:58;27.63;;;18.93;;
20078;SDS011;10199;48.850;8.924;2024-01-11T12:20:26;32.30;;;22.67;;
20078;SDS011;10199;48.850;8.924;2024-01-11T12:23:02;32.47;;;22.37;;
20078;SDS011;10199;48.850;8.924;2024-01-11T12:25:31;31.80;;;21.57;;
20078;SDS011;10199;48.850;8.924;2024-01-11T12:27:59;32.53;;;22.57;;
20078;SDS011;10199;48.850;8.924;2024-01-11T12:30:27;30.67;;;21.53;;
20078;SDS011;10199;48.850;8.924;2024-01-11T12:32:58;32.33;;;23.87;;
20078;SDS011;10199;48.850;8.924;2024-01-11T12:35:28;31.37;;;22.33;;
20078;SDS011;10199;48.850;8.924;2024-01-11T12:37:58;33.27;;;21.30;;
20078;SDS011;10199;48.850;8.924;2024-01-11T12:40:27;32.30;;;24.13;;
20078;SDS011;10199;48.850;8.924;2024-01-11T12:43:03;36.00;;;25.47;;
20078;SDS011;10199;48.850;8.924;2024-01-11T12:45:31;33.63;;;24.17;;
20078;SDS011;10199;48.850;8.924;2024-01-11T12:48:01;36.43;;;25.63;;
20078;SDS011;10199;48.850;8.924;2024-01-11T12:50:31;33.57;;;22.27;;
20078;SDS011;10199;48.850;8.924;2024-01-11T12:53:09;33.63;;;24.10;;
20078;SDS011;10199;48.850;8.924;2024-01-11T12:55:45;34.87;;;25.93;;
20078;SDS011;10199;48.850;8.924;2024-01-11T12:58:42;34.60;;;24.60;;
20078;SDS011;10199;48.850;8.924;2024-01-11T13:01:13;33.53;;;24.40;;
20078;SDS011;10199;48.850;8.924;2024-01-11T13:03:44;39.70;;;26.47;;
20078;SDS011;10199;48.850;8.924;2024-01-11T13:06:14;34.30;;;25.13;;
20078;SDS011;10199;48.850;8.924;2024-01-11T13:09:16;34.10;;;25.33;;
20078;SDS011;10199;48.850;8.924;2024-01-11T13:11:44;31.93;;;24.37;;
20078;SDS011;10199;48.850;8.924;2024-01-11T13:14:12;38.60;;;24.57;;
20078;SDS011;10199;48.850;8.924;2024-01-11T13:17:30;36.10;;;25.73;;
20078;SDS011;10199;48.850;8.924;2024-01-11T13:20:50;36.37;;;25.53;;
20078;SDS011;10199;48.850;8.924;2024-01-11T13:47:49;37.13;;;24.37;;
20078;SDS011;10199;48.850;8.924;2024-01-11T16:17:35;42.50;;;30.00;;
20078;SDS011;10199;48.850;8.924;2024-01-11T16:20:12;44.53;;;28.70;;
20078;SDS011;10199;48.850;8.924;2024-01-11T16:22:51;43.23;;;28.30;;
20078;SDS011;10199;48.850;8.924;2024-01-11T16:25:20;37.57;;;27.27;;
20078;SDS011;10199;48.850;8.924;2024-01-11T16:27:48;49.57;;;34.13;;
20078;SDS011;10199;48.850;8.924;2024-01-11T16:30:16;49.87;;;33.43;;
20078;SDS011;10199;48.850;8.924;2024-01-11T16:32:47;69.73;;;41.53;;
20078;SDS011;10199;48.850;8.924;2024-01-11T16:35:15;73.17;;;42.50;;
20078;SDS011;10199;48.850;8.924;2024-01-11T16:37:44;68.20;;;41.37;;
20078;SDS011;10199;48.850;8.924;2024-01-11T16:40:13;71.43;;;42.73;;
20078;SDS011;10199;48.850;8.924;2024-01-11T16:42:47;55.10;;;34.83;;
20078;SDS011;10199;48.850;8.924;2024-01-11T16:45:15;56.13;;;35.93;;
20078;SDS011;10199;48.850;8.924;2024-01-11T16:47:46;61.03;;;37.37;;
20078;SDS011;10199;48.850;8.924;2024-01-11T16:50:16;79.03;;;46.53;;
20078;SDS011;10199;48.850;8.924;2024-01-11T16:52:44;67.53;;;40.83;;
20078;SDS011;10199;48.850;8.924;2024-01-11T16:55:13;63.10;;;39.83;;
20078;SDS011;10199;48.850;8.924;2024-01-11T16:57:41;48.70;;;33.90;;
20078;SDS011;10199;48.850;8.924;2024-01-11T17:00:09;55.63;;;36.03;;
20078;SDS011;10199;48.850;8.924;2024-01-11T17:02:37;56.43;;;37.43;;
20078;SDS011;10199;48.850;8.924;2024-01-11T17:05:07;49.30;;;34.50;;
20078;SDS011;10199;48.850;8.924;2024-01-11T17:07:35;48.17;;;33.67;;
20078;SDS011;10199;48.850;8.924;2024-01-11T17:10:04;46.87;;;35.17;;
20078;SDS011;10199;48.850;8.924;2024-01-11T17:12:45;49.97;;;33.17;;
20078;SDS011;10199;48.850;8.924;2024-01-11T17:15:32;49.03;;;33.47;;
20078;SDS011;10199;48.850;8.924;2024-01-11T17:18:00;46.33;;;31.80;;
20078;SDS011;10199;48.850;8.924;2024-01-11T17:20:30;45.07;;;30.73;;
20078;SDS011;10199;48.850;8.924;2024-01-11T17:23:14;45.13;;;31.50;;
20078;SDS011;10199;48.850;8.924;2024-01-11T17:26:18;42.73;;;29.80;;
20078;SDS011;10199;48.850;8.924;2024-01-11T17:29:35;47.43;;;33.33;;
20078;SDS011;10199;48.850;8.924;2024-01-11T17:32:11;42.43;;;30.90;;
20078;SDS011;10199;48.850;8.924;2024-01-11T17:35:27;46.70;;;33.43;;
20078;SDS011;10199;48.850;8.924;2024-01-11T17:39:05;52.30;;;37.33;;
20078;SDS011;10199;48.850;8.924;2024-01-11T18:09:18;48.70;;;34.43;;
20078;SDS011;10199;48.850;8.924;2024-01-11T18:11:56;48.87;;;33.07;;
20078;SDS011;10199;48.850;8.924;2024-01-11T23:48:56;27.03;;;18.67;;
20078;SDS011;10199;48.850;8.924;2024-01-11T23:53:20;27.23;;;17.90;;
